KSLN/SLN METAR and TAF weather

Enter ICAO airport designator
Station Type Date Time Source
KSLN METAR 2020/10/20 17:26 UTC NOAA

KSLN 201726Z 23004KT 10SM OVC015 09/05 A3003 RMK AO2 T00890050


Station Type Date Time Source
KSLN Decoded METAR 2020/10/20 17:26 UTC NOAA

SALINA MUNICIPAL AIRPORT, KS, United States (KSLN) 38-47N 97-39W 385M
Oct 20, 2020 - 01:26 PM EDT / 2020.10.20 1726 UTC
Wind: from the SW (230 degrees) at 5 MPH (4 KT):0
Visibility: 10 mile(s):0
Sky conditions: overcast
Temperature: 48.0 F (8.9 C)
Dew Point: 41.0 F (5.0 C)
Relative Humidity: 76%
Pressure (altimeter): 30.03 in. Hg (1016 hPa)
ob: KSLN 201726Z 23004KT 10SM OVC015 09/05 A3003 RMK AO2 T00890050
cycle: 17

Station Type Date Time Source
KSLN TAF 2020/10/20 18:39 UTC NOAA

TAF KSLN 201736Z 2018/2118 22006KT P6SM OVC020
FM202200 17005KT P6SM SCT250
FM210400 05006KT P6SM SCT250
FM211400 08006KT P6SM OVC015

Example: see airport list